• Join FlightAware (Why Join?)
  • Login
  • US Flag 
Gobble Gobble! 
12:38PM EST


 

Airport Tracker/Info


-or-


 

Live Flight TrackerFlight Track Log ✈ SKW5315 ✈ 17-Jul-2013 ✈ KDEN - KRKS

Flight Track Log - Related Links

Times and Time Zones

All times are in EDT time to prevent confusion due to time zone crossing. See the SKW5315 flight status page for this flight to view local times or setup timezone preferences in your user account.

Time Position Orientation Groundspeed Altitude Reporting Facility
EDT Latitude Longitude Course Direction KTS MPH feet Rate Location/Type
11:49AM 39.8500 -104.7500 288° West 167 192 6,800  Level Denver TRACON
11:50AM 39.8833 -104.8000 311° West 203 234 7,900 660 Climbing Denver TRACON
11:51AM 39.8978 -104.8531 290° West 217 250 8,000 720 Climbing Denver Center
11:52AM 39.8460 -104.8757 282° West  Level FlightAware Approximate
11:52AM 39.9247 -104.9417 292° West 239 275 9,200  Level Denver Center
11:53AM 39.8680 -104.9717 288° West  Level FlightAware Approximate
11:53AM 39.9325 -105.0242 277° West 233 268 10,400  Level Denver Center
11:54AM 39.8918 -105.0672 288° West  Level FlightAware Approximate
11:54AM 39.9433 -105.1161 279° West 239 275 11,800  Level Denver Center
11:55AM 39.9539 -105.2031 279° West 244 281 12,700 900 Climbing Denver Center
11:56AM 39.9703 -105.2933 283° West 239 275 13,700 960 Climbing Denver Center
11:57AM 39.9886 -105.3769 286° West 239 275 14,700 900 Climbing Denver Center
11:58AM 40.0050 -105.4558 285° West 227 261 15,600 900 Climbing Denver Center
11:59AM 40.0178 -105.5439 281° West 230 265 16,600 840 Climbing Denver Center
12:00PM 40.0367 -105.6236 287° West 230 265 17,400 600 Climbing Denver Center
12:01PM 40.0772 -105.7008 304° West 237 273 17,900 600 Climbing Denver Center
12:02PM 40.1128 -105.7742 302° West 238 274 18,700 720 Climbing Denver Center
12:03PM 40.1461 -105.8472 301° West 228 262 19,500 720 Climbing Denver Center
12:04PM 40.1797 -105.9222 300° West 235 270 20,200 660 Climbing Denver Center
12:05PM 40.2147 -105.9964 302° West 239 275 20,900 600 Climbing Denver Center
12:06PM 40.2506 -106.0703 302° West 241 277 21,500 480 Climbing Denver Center
12:07PM 40.2942 -106.1633 302° West 244 281 22,000 240 Climbing Denver Center
12:08PM 40.3308 -106.2422 301° West 261 300 22,000  Level Denver Center
12:09PM 40.3719 -106.3256 303° West 280 322 22,000  Level Denver Center
12:10PM 40.4189 -106.4228 302° West 283 326 22,000  Level Denver Center
12:11PM 40.4661 -106.5172 303° West 290 334 22,000  Level Denver Center
12:12PM 40.5089 -106.6072 302° West 291 335 22,000  Level Denver Center
12:13PM 40.5508 -106.6989 301° West 292 336 22,000  Level Denver Center
12:14PM 40.5922 -106.7908 301° West 292 336 22,000  Level Denver Center
12:15PM 40.6350 -106.8817 302° West 293 337 22,000  Level Denver Center
12:17PM 40.6761 -106.9744 300° West 293 337 22,000  Level Denver Center
12:18PM 40.7339 -107.1053 300° West 295 339 22,000  Level Denver Center
12:19PM 40.7758 -107.2019 300° West 294 338 22,000  Level Denver Center
12:20PM 40.8153 -107.2914 300° West 296 341 22,000  Level Denver Center
12:21PM 40.8628 -107.3950 301° West 295 339 22,000  Level Denver Center
12:22PM 40.9025 -107.4833 301° West 294 338 22,000  Level Denver Center
12:23PM 40.9500 -107.5872 301° West 295 339 22,000  Level Denver Center
12:24PM 40.9900 -107.6761 301° West 294 338 22,000  Level Denver Center
12:25PM 41.0372 -107.7808 301° West 297 342 22,000  Level Denver Center
12:26PM 41.0761 -107.8706 300° West 295 339 22,000  Level Denver Center
12:27PM 41.1233 -107.9758 301° West 296 341 22,000 -240 Level Denver Center
12:28PM 41.1617 -108.0683 299° West 298 343 21,600 -1,020 Descending Denver Center
12:29PM 41.2119 -108.1861 300° West 332 382 20,000 -1,380 Descending Denver Center
12:30PM 41.2556 -108.2844 301° West 325 374 18,800 -1,020 Descending Denver Center
12:31PM 41.3000 -108.3775 302° West 316 364 18,000 -1,320 Descending Denver Center
12:32PM 41.3486 -108.4892 300° West 313 360 16,100 -1,860 Descending Denver Center
12:35PM 41.4113 -108.6648 301° West  Level FlightAware Approximate